CDT,Max TemperatureF,Mean TemperatureF,Min TemperatureF,Max Dew PointF,MeanDew PointF,Min DewpointF,Max Humidity, Mean Humidity, Min Humidity, Max Sea Level PressureIn, Mean Sea Level PressureIn, Min Sea Level PressureIn, Max VisibilityMiles, Mean VisibilityMiles, Min VisibilityMiles, Max Wind SpeedMPH, Mean Wind SpeedMPH, Max Gust SpeedMPH,PrecipitationIn, CloudCover, Events, WindDirDegrees
2013-3-1,30,28,26,25,18,16,86,68,55,30.27,30.19,30.11,10,9,4,17,9,20,0.00,8,Snow,18
2013-3-2,30,21,12,16,9,5,79,61,37,30.29,30.25,30.21,10,10,10,12,7,,0.00,1,,318
2013-3-3,32,18,5,14,7,0,85,60,30,30.21,30.12,30.04,10,10,7,9,2,,0.00,2,,124
2013-3-4,35,30,24,25,22,10,80,69,51,30.06,29.94,29.87,10,9,1,20,11,26,0.02,6,Snow,100
2013-3-5,32,30,28,25,23,19,86,77,69,30.18,29.97,29.89,10,6,0,22,10,29,0.13,8,Snow,324
2013-3-6,28,24,17,19,17,12,80,70,64,30.37,30.33,30.18,10,10,7,16,10,20,0.00,6,,323
2013-3-7,32,18,5,21,12,0,86,75,60,30.43,30.38,30.36,10,6,0,8,1,,0.04,4,Snow,116
2013-3-8,41,28,15,30,23,10,86,72,60,30.40,30.33,30.19,10,9,4,13,5,18,0.00,0,,125
2013-3-9,39,37,35,36,33,28,93,84,70,30.17,29.94,29.75,10,5,1,17,7,24,1.01,7,Rain-Snow,139
2013-3-10,46,42,37,43,38,34,93,86,81,29.74,29.66,29.55,7,2,0,13,5,24,1.10,8,Fog-Rain,202
2013-3-11,37,32,28,34,28,19,93,82,69,29.91,29.72,29.61,10,6,0,23,9,29,0.05,8,Fog,291
2013-3-12,33,28,24,28,21,16,81,72,64,30.17,30.02,29.91,10,8,0,25,13,33,0.00,5,Snow,275
2013-3-13,35,28,21,18,13,9,80,58,33,30.40,30.33,30.17,10,10,10,18,13,23,0.00,0,Snow,305
2013-3-14,50,37,24,28,24,18,86,64,40,30.36,30.19,30.07,10,10,10,15,2,22,0.00,2,,156
2013-3-15,48,38,28,37,30,23,87,76,61,30.06,29.87,29.71,10,7,4,12,3,,0.00,0,,87
2013-3-16,37,34,30,30,28,21,87,77,69,30.15,29.97,29.74,10,6,0,20,10,24,0.00,8,,341
2013-3-17,37,30,24,25,21,14,74,63,51,30.19,30.08,29.91,10,10,5,17,12,22,0.00,4,Snow,77
2013-3-18,35,28,21,30,22,9,87,72,54,29.95,29.80,29.70,10,7,0,29,11,40,0.14,7,Snow,280
2013-3-19,35,26,17,18,9,3,64,52,32,30.18,30.10,29.93,10,10,10,26,19,31,0.00,1,,290
2013-3-20,28,20,12,16,3,-2,69,48,31,30.25,30.19,30.13,10,10,10,28,18,37,0.00,1,,308
2013-3-21,33,22,10,12,4,0,73,51,23,30.13,30.08,30.01,10,10,10,10,5,,0.00,0,,351
2013-3-22,42,28,15,21,13,7,79,54,24,30.08,30.05,30.00,10,10,10,8,2,,0.00,2,,24
2013-3-23,44,34,24,21,16,3,80,50,18,30.11,30.06,29.99,10,10,10,14,4,17,0.00,3,,46
2013-3-24,33,30,28,28,26,19,87,82,56,30.01,29.87,29.77,10,3,1,18,12,23,0.03,8,Snow,9
2013-3-25,35,32,28,25,23,19,86,69,56,30.19,30.01,29.87,10,9,2,18,12,24,0.01,7,Snow,332
2013-3-26,42,33,24,25,23,19,80,65,49,30.32,30.26,30.19,10,10,10,20,10,24,0.00,5,,295
2013-3-27,46,37,26,25,19,10,75,52,25,30.37,30.33,30.29,10,10,10,9,4,,0.00,2,,288
2013-3-28,53,38,23,32,23,18,86,58,26,30.37,30.32,30.25,10,9,1,7,1,,0.00,2,,135
2013-3-29,59,42,26,30,24,18,86,55,20,30.31,30.25,30.19,10,9,2,9,1,,0.00,0,,102
2013-3-30,55,42,30,43,35,25,87,72,51,30.20,30.02,29.88,10,9,5,20,5,25,0.00,3,Rain,196
2013-3-31,55,46,35,43,31,19,87,59,25,30.02,29.88,29.84,10,7,0,26,10,36,0.00,4,Fog,296